ROMMA est une association bénévole à but non lucratif. Votre soutien est indispensable : ADHERER à ROMMA ou FAIRE un DON

Crest - (26, Drôme)

Vallée de la Drôme (315 m)   Longitude: 5°2' E   Latitude: 44°44' N Station partenaire n°62
 

Détail journalier du     <<     >>

Température Precipitation Humidité Pression Vent Dir Rafale Dir. rafale Ensol.
Heure (°C) (mm) (%) (hPa) (km/h) (km/h) (min)
01:00 17.1083102110SSO21SSO0
02:00 16.908310215NE19SSO0
03:00 15.308810211SE6SE0
04:00 14.909010211ESE5E0
05:00 13.909210201SSE6SE0
06:00 13.809310211SSE6SSE0
07:00 13.809410211SSE8SE0
08:00 14.109510211SE8SE0
09:00 14.709510211SSE6SE4
10:00 18.708010215NE19NE29
11:00 21.1068102011NE26SSO60
12:00 22.7063102013NE29NNE60
13:00 24.2059102014NE31SSO60
14:00 25.3055101915NE31NNO46
15:00 26.2052101916NE35NE60
16:00 26.8049101815NE34NE60
17:00 27.3047101814NE34SSO60
18:00 27.0048101813NE32NE60
19:00 26.4049101713NE31NNE60
20:00 25.105210189SSO26SSO5
21:00 22.805810185SSO15SSO0
22:00 20.806410187S15NE0
23:00 19.806810197SSO19SSO0
minuit 18.707110194SSO18SSO0

Graphique du 23-08-2019

 

Serveur OMMA